Time;durP1;ratioP1;P1;durP2;ratioP2;P2;SDS_P1;SDS_P2;PMS_P1;PMS_P2;Temp;Humidity;BMP_temperature;BMP_pressure;BME280_temperature;BME280_humidity;BME280_pressure;Samples;Min_cycle;Max_cycle;Signal;HPM_P1;HPM_P2
2022/10/05 00:00:48;;;;;;;19.27;17.98;;;15.70;91.10;;;;;;4954647;28;20048;-78
2022/10/05 00:03:14;;;;;;;19.40;18.05;;;15.70;91.10;;;;;;4939592;29;20399;-78
2022/10/05 00:05:40;;;;;;;18.55;17.45;;;15.60;91.10;;;;;;4939313;29;20035;-78
2022/10/05 00:08:11;;;;;;;18.90;17.75;;;15.70;91.10;;;;;;4956278;28;20032;-79
2022/10/05 00:10:38;;;;;;;18.50;17.35;;;15.60;91.50;;;;;;4946540;28;20047;-79
2022/10/05 00:13:12;;;;;;;18.63;17.27;;;15.60;91.20;;;;;;4958343;28;20023;-78
2022/10/05 00:15:38;;;;;;;18.30;17.10;;;15.60;91.00;;;;;;4959061;28;20046;-78
2022/10/05 00:18:22;;;;;;;19.52;18.33;;;15.60;91.10;;;;;;4957552;28;20412;-78
2022/10/05 00:20:49;;;;;;;19.30;18.10;;;15.60;91.10;;;;;;4943036;29;20047;-78
2022/10/05 00:23:20;;;;;;;17.88;16.75;;;15.60;91.00;;;;;;4954720;28;20410;-79
2022/10/05 00:25:46;;;;;;;18.73;17.52;;;15.50;91.10;;;;;;4936611;29;20028;-79
2022/10/05 00:28:29;;;;;;;19.10;17.45;;;15.50;91.10;;;;;;4951973;28;20031;-79
2022/10/05 00:30:58;;;;;;;17.80;16.60;;;15.50;91.00;;;;;;4961520;28;20480;-78
2022/10/05 00:33:25;;;;;;;18.27;16.98;;;15.40;91.10;;;;;;4954870;28;20397;-78
2022/10/05 00:35:51;;;;;;;18.08;16.80;;;15.40;91.20;;;;;;4968136;28;20054;-78
2022/10/05 00:38:17;;;;;;;18.95;17.65;;;15.40;91.10;;;;;;4953114;29;20035;-79
2022/10/05 00:41:02;;;;;;;18.33;16.92;;;15.40;91.20;;;;;;4940590;29;20507;-79
2022/10/05 00:43:34;;;;;;;18.10;16.90;;;15.40;91.20;;;;;;4956510;28;20039;-78
2022/10/05 00:46:09;;;;;;;17.77;16.73;;;15.30;91.10;;;;;;4954873;28;20035;-78
2022/10/05 00:49:07;;;;;;;17.90;16.52;;;15.40;91.10;;;;;;4952808;28;20042;-78
2022/10/05 00:51:35;;;;;;;17.40;16.40;;;15.30;91.40;;;;;;4959705;28;20035;-78
2022/10/05 00:54:13;;;;;;;17.27;16.05;;;15.30;91.20;;;;;;4955364;28;20027;-78
2022/10/05 00:56:51;;;;;;;17.40;16.02;;;15.30;91.20;;;;;;4954554;28;20031;-79
2022/10/05 00:59:26;;;;;;;17.83;16.58;;;15.20;91.20;;;;;;4955483;28;20047;-78
2022/10/05 01:02:20;;;;;;;18.55;17.00;;;15.20;91.20;;;;;;4969709;28;20047;-78
2022/10/05 01:04:48;;;;;;;18.08;16.58;;;15.20;91.20;;;;;;4961336;28;20058;-78
2022/10/05 01:07:25;;;;;;;17.38;16.10;;;15.20;91.20;;;;;;4947774;29;20035;-78
2022/10/05 01:09:53;;;;;;;17.00;15.70;;;15.10;91.30;;;;;;4967026;28;20392;-78
2022/10/05 01:12:41;;;;;;;17.50;15.98;;;15.10;91.20;;;;;;4966506;28;20039;-78
2022/10/05 01:15:21;;;;;;;18.13;16.85;;;15.10;91.20;;;;;;4945401;28;20066;-78
2022/10/05 01:18:16;;;;;;;16.13;15.15;;;15.10;91.20;;;;;;4948333;28;20047;-78
2022/10/05 01:20:54;;;;;;;16.95;15.95;;;15.10;91.20;;;;;;4950479;28;20039;-78
2022/10/05 01:23:20;;;;;;;16.58;15.48;;;15.00;91.60;;;;;;4953866;28;20054;-78
2022/10/05 01:26:00;;;;;;;17.35;16.02;;;15.00;91.20;;;;;;4970255;28;20035;-78
2022/10/05 01:28:28;;;;;;;16.77;15.55;;;15.00;91.20;;;;;;4938684;29;20044;-78
2022/10/05 01:31:00;;;;;;;16.75;15.65;;;15.00;91.20;;;;;;4961551;28;20034;-78
2022/10/05 01:33:49;;;;;;;17.75;16.33;;;15.00;91.20;;;;;;4958799;28;20051;-79
2022/10/05 01:36:23;;;;;;;20.08;18.77;;;14.90;91.20;;;;;;4952563;29;20043;-79
2022/10/05 01:39:18;;;;;;;20.38;19.00;;;14.90;91.40;;;;;;4968042;28;20035;-78
2022/10/05 01:42:09;;;;;;;20.17;18.88;;;14.90;91.20;;;;;;4935890;28;20043;-78
2022/10/05 01:44:43;;;;;;;19.52;18.33;;;14.90;91.20;;;;;;4919438;29;20059;-78
2022/10/05 01:47:15;;;;;;;19.30;18.10;;;14.80;91.20;;;;;;4951039;28;20046;-78
2022/10/05 01:50:06;;;;;;;18.05;16.95;;;14.80;91.30;;;;;;4953365;28;20046;-78
2022/10/05 01:52:47;;;;;;;19.17;18.08;;;14.80;91.50;;;;;;4953454;28;20031;-78
2022/10/05 01:55:35;;;;;;;18.92;17.80;;;14.80;91.20;;;;;;4969841;28;20051;-79
2022/10/05 01:58:14;;;;;;;19.48;18.27;;;14.80;91.20;;;;;;4969464;28;20050;-78
2022/10/05 02:01:00;;;;;;;18.33;16.95;;;14.70;91.20;;;;;;4936779;28;20062;-78
2022/10/05 02:03:28;;;;;;;19.67;18.27;;;14.70;91.20;;;;;;4933536;29;20503;-78
2022/10/05 02:06:07;;;;;;;19.70;18.50;;;14.60;91.20;;;;;;4926917;29;20028;-78
2022/10/05 02:08:48;;;;;;;18.13;17.02;;;14.50;91.30;;;;;;4948845;28;20038;-78
2022/10/05 02:11:14;;;;;;;19.90;18.67;;;14.50;91.30;;;;;;4936271;28;20488;-78
2022/10/05 02:13:47;;;;;;;19.33;18.10;;;14.50;91.40;;;;;;4948872;28;20291;-79
2022/10/05 02:16:20;;;;;;;18.73;17.63;;;14.50;91.30;;;;;;4951281;28;20050;-78
2022/10/05 02:18:49;;;;;;;20.77;19.30;;;14.50;91.40;;;;;;4933205;29;20043;-79
2022/10/05 02:21:16;;;;;;;20.30;18.83;;;14.40;91.40;;;;;;4929417;29;20050;-78
2022/10/05 02:23:42;;;;;;;20.38;19.02;;;14.40;91.40;;;;;;4933122;29;20039;-79
2022/10/05 02:26:09;;;;;;;21.08;19.73;;;14.40;91.40;;;;;;4940409;29;20050;-78
2022/10/05 02:28:51;;;;;;;21.20;19.55;;;14.40;91.30;;;;;;4932750;29;20039;-79
2022/10/05 02:31:28;;;;;;;19.65;18.50;;;14.40;91.30;;;;;;4944412;28;20045;-78
2022/10/05 02:34:23;;;;;;;20.50;18.98;;;14.40;91.40;;;;;;4957459;28;20047;-78
2022/10/05 02:37:17;;;;;;;20.00;18.50;;;14.40;91.60;;;;;;4971306;28;20083;-78
2022/10/05 02:39:51;;;;;;;20.15;18.35;;;14.50;91.60;;;;;;4971901;28;20043;-78
2022/10/05 02:42:22;;;;;;;19.65;18.45;;;14.50;91.60;;;;;;4952139;28;20049;-78
2022/10/05 02:45:04;;;;;;;19.10;17.95;;;14.50;92.10;;;;;;4935909;29;20054;-77
2022/10/05 02:47:56;;;;;;;18.83;17.63;;;14.50;92.20;;;;;;4953817;28;20404;-78
2022/10/05 02:50:29;;;;;;;20.73;19.42;;;14.30;93.00;;;;;;4965157;28;20051;-78
2022/10/05 02:53:00;;;;;;;21.55;20.25;;;14.40;92.90;;;;;;4968437;28;20035;-78
2022/10/05 02:55:38;;;;;;;21.63;20.33;;;14.50;92.80;;;;;;4965271;28;20092;-79
2022/10/05 02:58:18;;;;;;;23.10;21.45;;;14.60;92.60;;;;;;4961164;28;20034;-78
2022/10/05 03:00:46;;;;;;;24.73;23.33;;;14.60;92.80;;;;;;4951601;28;20035;-80
2022/10/05 03:03:49;;;;;;;24.98;23.15;;;14.60;93.10;;;;;;4929581;29;20074;-79
2022/10/05 03:06:20;;;;;;;25.42;23.45;;;14.50;93.30;;;;;;4934333;29;20036;-79
2022/10/05 03:09:00;;;;;;;28.42;26.83;;;14.60;93.50;;;;;;4929404;29;20111;-79
2022/10/05 03:11:37;;;;;;;29.25;27.58;;;14.60;93.50;;;;;;4914381;29;20032;-79
2022/10/05 03:14:24;;;;;;;27.88;25.92;;;14.70;93.40;;;;;;4918628;29;20060;-78
2022/10/05 03:17:18;;;;;;;29.70;27.67;;;14.80;93.50;;;;;;4924222;28;20028;-78
2022/10/05 03:20:11;;;;;;;28.65;26.67;;;14.80;93.40;;;;;;4913663;29;20534;-78
2022/10/05 03:22:57;;;;;;;27.05;25.42;;;14.90;93.40;;;;;;4912546;29;20051;-78
2022/10/05 03:26:10;;;;;;;27.40;25.65;;;14.90;93.70;;;;;;4912725;29;20047;-78
2022/10/05 03:28:43;;;;;;;33.65;31.55;;;14.80;94.10;;;;;;4894117;29;20049;-79
2022/10/05 03:31:23;;;;;;;36.95;34.67;;;14.80;93.90;;;;;;4881954;29;20044;-79
2022/10/05 03:33:52;;;;;;;33.70;31.67;;;14.70;94.30;;;;;;4894010;29;20053;-79
2022/10/05 03:37:00;;;;;;;39.95;37.50;;;14.80;94.10;;;;;;4894526;29;20444;-78
2022/10/05 03:39:36;;;;;;;40.40;38.03;;;14.80;93.80;;;;;;4875661;29;20048;-78
2022/10/05 03:42:24;;;;;;;38.95;36.42;;;14.90;94.20;;;;;;4874561;29;20041;-78
2022/10/05 03:44:58;;;;;;;39.40;36.70;;;14.90;94.00;;;;;;4856387;29;20506;-78
2022/10/05 03:47:30;;;;;;;39.53;37.25;;;14.90;94.30;;;;;;4872230;29;20045;-78
2022/10/05 03:50:14;;;;;;;41.17;38.70;;;14.80;94.40;;;;;;4857495;29;20034;-78
2022/10/05 03:52:46;;;;;;;36.40;34.25;;;14.90;94.20;;;;;;4872501;29;20517;-78
2022/10/05 03:55:23;;;;;;;43.33;40.53;;;15.00;94.20;;;;;;4856480;29;20050;-78
2022/10/05 03:57:50;;;;;;;42.45;39.75;;;15.10;93.90;;;;;;4858804;29;20049;-78
2022/10/05 04:00:22;;;;;;;42.45;40.03;;;15.00;94.20;;;;;;4923118;28;20054;-78
2022/10/05 04:03:04;;;;;;;36.58;34.35;;;15.10;93.80;;;;;;4936024;29;20040;-78
2022/10/05 04:05:54;;;;;;;48.10;45.17;;;15.10;94.10;;;;;;4944888;28;20026;-78
2022/10/05 04:08:20;;;;;;;41.60;38.80;;;15.20;93.80;;;;;;4902584;29;20047;-77
2022/10/05 04:10:53;;;;;;;46.10;43.25;;;15.10;94.30;;;;;;4923398;29;20040;-77
2022/10/05 04:13:41;;;;;;;45.13;42.47;;;15.20;94.10;;;;;;4924719;29;20051;-77
2022/10/05 04:16:07;;;;;;;37.17;34.83;;;15.20;94.00;;;;;;4940812;28;20032;-77
2022/10/05 04:18:44;;;;;;;35.83;33.60;;;15.10;94.10;;;;;;4937891;29;20040;-77
2022/10/05 04:21:28;;;;;;;36.03;33.67;;;15.20;94.20;;;;;;4968332;28;20051;-77
2022/10/05 04:24:10;;;;;;;35.00;32.70;;;15.20;94.20;;;;;;4964707;28;20039;-77
2022/10/05 04:26:41;;;;;;;32.28;30.20;;;15.30;94.10;;;;;;4966629;28;20040;-77
2022/10/05 04:29:23;;;;;;;;;;;15.40;94.20;;;;;;4952597;29;20044;-77
2022/10/05 04:32:07;;;;;;;31.42;28.88;;;15.40;94.50;;;;;;4951720;28;19923;-77
2022/10/05 04:34:44;;;;;;;31.08;28.58;;;15.40;94.20;;;;;;4951614;29;20023;-77
2022/10/05 04:37:34;;;;;;;31.65;29.48;;;15.40;94.70;;;;;;4956447;28;20499;-77
2022/10/05 04:40:48;;;;;;;30.42;28.20;;;15.40;94.90;;;;;;4953117;28;20040;-77
2022/10/05 04:43:29;;;;;;;31.45;29.20;;;15.40;95.40;;;;;;4879576;29;20057;-77
2022/10/05 04:46:13;;;;;;;;;;;15.40;95.70;;;;;;4862804;29;20496;-77
2022/10/05 04:49:01;;;;;;;29.50;27.30;;;15.30;95.60;;;;;;4878787;29;19919;-76
2022/10/05 04:51:39;;;;;;;29.00;26.95;;;15.30;95.80;;;;;;4863038;29;20048;-77
2022/10/05 04:54:30;;;;;;;29.98;27.85;;;15.30;95.90;;;;;;4862433;29;20049;-77
2022/10/05 04:57:01;;;;;;;29.65;27.40;;;15.40;95.80;;;;;;4876300;29;20044;-82
2022/10/05 04:59:27;;;;;;;33.15;30.88;;;15.50;95.80;;;;;;4880125;29;20045;-76
2022/10/05 05:01:56;;;;;;;29.65;27.55;;;15.50;95.90;;;;;;4896249;29;20044;-76
2022/10/05 05:04:55;;;;;;;1114.20;200.88;;;15.50;95.60;;;;;;4880888;29;20040;-77
2022/10/05 05:07:26;;;;;;;56.08;36.20;;;15.60;95.60;;;;;;4882461;29;20051;-76
2022/10/05 05:10:18;;;;;;;25.67;23.60;;;15.60;95.60;;;;;;4879062;29;20041;-76
2022/10/05 05:13:02;;;;;;;;;;;15.50;95.60;;;;;;4883972;29;20043;-76
2022/10/05 05:16:01;;;;;;;26.48;24.23;;;15.60;95.50;;;;;;4895145;29;19916;-76
2022/10/05 05:18:41;;;;;;;26.20;24.25;;;15.60;95.40;;;;;;4894652;29;20040;-78
2022/10/05 05:21:31;;;;;;;26.63;24.73;;;15.60;95.20;;;;;;4938542;29;20066;-78
2022/10/05 05:24:19;;;;;;;28.15;26.17;;;15.60;95.40;;;;;;4950267;28;20043;-78
2022/10/05 05:26:49;;;;;;;28.17;25.98;;;15.70;95.30;;;;;;4960863;28;20500;-78
2022/10/05 05:29:30;;;;;;;32.20;29.95;;;15.70;95.30;;;;;;4946524;28;20034;-77
2022/10/05 05:32:04;;;;;;;30.92;28.52;;;15.60;95.80;;;;;;4934862;28;20060;-77
2022/10/05 05:35:05;;;;;;;33.03;30.58;;;15.60;96.00;;;;;;4938493;29;20476;-77
2022/10/05 05:37:56;;;;;;;31.10;28.67;;;15.50;96.00;;;;;;4945748;28;20028;-77
2022/10/05 05:40:29;;;;;;;31.50;28.83;;;15.60;96.00;;;;;;4951551;28;20038;-77
2022/10/05 05:43:02;;;;;;;34.35;32.15;;;15.60;95.80;;;;;;4935641;29;20027;-77
2022/10/05 05:45:39;;;;;;;31.85;29.45;;;15.70;95.70;;;;;;4935314;28;20396;-78
2022/10/05 05:48:18;;;;;;;28.63;26.63;;;15.70;95.70;;;;;;4935213;29;20036;-77
2022/10/05 05:51:15;;;;;;;29.85;27.52;;;15.70;95.60;;;;;;4942854;28;20376;-78
2022/10/05 05:53:43;;;;;;;30.58;28.35;;;15.70;95.70;;;;;;4920559;29;20044;-77
2022/10/05 05:56:10;;;;;;;30.20;27.88;;;15.70;95.90;;;;;;4935920;29;20039;-77
2022/10/05 05:58:58;;;;;;;28.48;26.10;;;15.70;95.90;;;;;;4950822;29;20027;-78
2022/10/05 06:01:26;;;;;;;30.58;28.38;;;15.70;95.90;;;;;;4880235;29;20036;-78
2022/10/05 06:03:58;;;;;;;30.20;27.98;;;15.70;95.70;;;;;;4895984;29;20052;-78
2022/10/05 06:06:30;;;;;;;31.30;28.85;;;15.70;95.80;;;;;;4906149;29;20491;-76
2022/10/05 06:08:59;;;;;;;30.33;28.30;;;15.70;95.80;;;;;;4883832;29;20043;-77
2022/10/05 06:11:31;;;;;;;31.35;29.23;;;15.60;95.90;;;;;;4897201;29;20394;-77
2022/10/05 06:14:00;;;;;;;33.85;31.15;;;15.60;96.20;;;;;;4910886;29;20039;-78
2022/10/05 06:16:40;;;;;;;31.92;29.42;;;15.70;96.00;;;;;;4895796;29;20047;-83
2022/10/05 06:19:14;;;;;;;35.60;32.63;;;15.70;95.80;;;;;;4899869;29;20048;-85
2022/10/05 06:21:44;;;;;;;34.50;32.00;;;15.80;97.10;;;;;;4894620;29;20548;-83
2022/10/05 06:24:15;;;;;;;31.95;29.70;;;15.90;97.20;;;;;;4911838;29;20067;-86
2022/10/05 06:27:14;;;;;;;33.05;30.70;;;15.90;96.90;;;;;;4898058;29;20040;-84
2022/10/05 06:29:57;;;;;;;36.45;33.95;;;15.90;96.70;;;;;;4913193;29;20036;-84
2022/10/05 06:32:43;;;;;;;32.80;30.48;;;16.10;96.90;;;;;;4895965;29;20056;-83
2022/10/05 06:35:28;;;;;;;35.97;33.78;;;16.20;96.50;;;;;;4898367;29;20044;-84
2022/10/05 06:38:15;;;;;;;31.60;29.52;;;16.20;96.30;;;;;;4916940;29;20489;-83
2022/10/05 06:40:44;;;;;;;28.20;26.30;;;16.20;96.00;;;;;;4947556;28;20097;-83
2022/10/05 06:43:31;;;;;;;33.05;30.83;;;16.10;96.50;;;;;;4947031;28;20039;-87
2022/10/05 06:46:28;;;;;;;23.02;20.92;;;16.10;96.50;;;;;;4949985;28;20038;-83
2022/10/05 06:49:21;;;;;;;24.42;22.73;;;16.10;96.50;;;;;;4938197;28;20047;-84
2022/10/05 06:51:49;;;;;;;32.33;29.88;;;16.10;96.30;;;;;;4934517;29;20112;-87
2022/10/05 06:54:30;;;;;;;30.05;28.17;;;16.10;96.50;;;;;;4939219;29;20035;-82
2022/10/05 06:57:31;;;;;;;24.58;22.45;;;16.30;96.30;;;;;;4937489;28;20404;-81
2022/10/05 07:00:18;;;;;;;48.25;44.40;;;16.20;96.20;;;;;;4939339;28;20432;-86
2022/10/05 07:02:47;;;;;;;41.42;38.42;;;16.30;96.70;;;;;;4932373;29;20043;-85
2022/10/05 07:05:31;;;;;;;40.42;37.72;;;16.50;96.90;;;;;;4964855;28;20036;-83
2022/10/05 07:07:58;;;;;;;41.90;38.88;;;16.50;97.20;;;;;;4944573;28;20031;-82
2022/10/05 07:11:02;;;;;;;29.88;27.92;;;16.70;97.40;;;;;;4964891;28;20464;-82
2022/10/05 07:13:50;;;;;;;31.40;29.00;;;16.80;97.40;;;;;;4950141;29;20042;-82
2022/10/05 07:16:20;;;;;;;29.73;27.67;;;17.00;97.20;;;;;;4934617;28;20378;-82
2022/10/05 07:19:10;;;;;;;24.65;22.85;;;17.00;96.70;;;;;;4964590;28;20027;-82
2022/10/05 07:21:38;;;;;;;66.13;28.52;;;17.00;96.50;;;;;;4932808;28;20485;-82
2022/10/05 07:24:29;;;;;;;43.85;25.67;;;17.00;96.70;;;;;;4936070;29;20062;-83
2022/10/05 07:27:07;;;;;;;127.38;30.98;;;17.10;96.30;;;;;;4938742;29;20030;-82
2022/10/05 07:29:50;;;;;;;37.53;24.08;;;17.10;96.50;;;;;;4952209;28;20038;-82
2022/10/05 07:32:38;;;;;;;35.70;24.40;;;17.20;96.60;;;;;;4953722;28;20047;-83
2022/10/05 07:38:42;;;;;;;23.80;21.92;;;17.20;96.00;;;;;;4949955;28;20039;-85
2022/10/05 07:41:11;;;;;;;32.17;29.92;;;17.10;95.60;;;;;;4944205;28;20469;-85
2022/10/05 07:43:53;;;;;;;32.70;30.13;;;17.20;96.60;;;;;;4972520;28;20050;-85
2022/10/05 07:46:50;;;;;;;28.60;26.73;;;17.20;96.30;;;;;;4971381;28;20036;-85
2022/10/05 07:49:22;;;;;;;24.77;23.35;;;17.20;95.90;;;;;;4972301;28;20035;-85
2022/10/05 07:51:51;;;;;;;23.83;22.25;;;17.20;96.30;;;;;;4947239;29;20042;-88
2022/10/05 07:54:46;;;;;;;23.83;22.40;;;17.30;96.90;;;;;;4932170;29;20023;-86
2022/10/05 07:57:43;;;;;;;27.33;25.70;;;17.40;96.70;;;;;;4965443;28;20380;-86
2022/10/05 08:00:14;;;;;;;24.05;22.15;;;17.40;96.00;;;;;;4949535;28;20043;-85
2022/10/05 08:02:54;;;;;;;27.02;25.05;;;17.30;95.90;;;;;;4955915;28;20047;-84
2022/10/05 08:05:25;;;;;;;24.23;22.42;;;17.30;96.60;;;;;;4976863;28;20050;-82
2022/10/05 08:07:59;;;;;;;26.70;24.95;;;17.40;97.10;;;;;;4964473;28;20035;-83
2022/10/05 08:10:49;;;;;;;25.52;23.85;;;17.40;96.00;;;;;;4966995;28;20024;-82
2022/10/05 08:13:22;;;;;;;21.80;20.50;;;17.40;96.70;;;;;;4953184;28;20392;-85
2022/10/05 08:15:54;;;;;;;31.58;29.25;;;17.40;96.30;;;;;;4936325;28;20027;-87
2022/10/05 08:18:45;;;;;;;26.10;24.38;;;17.50;97.30;;;;;;4960152;28;20042;-84
2022/10/05 08:21:12;;;;;;;27.15;25.08;;;17.60;97.00;;;;;;4926811;29;20405;-86
2022/10/05 08:24:05;;;;;;;29.65;27.83;;;17.70;97.40;;;;;;4936686;29;20124;-87
2022/10/05 08:26:34;;;;;;;27.67;26.08;;;17.80;96.70;;;;;;4948359;28;20047;-85
2022/10/05 08:29:21;;;;;;;28.50;26.48;;;17.80;97.20;;;;;;4971001;28;20047;-87
2022/10/05 08:31:52;;;;;;;29.85;28.13;;;17.90;96.80;;;;;;4970867;28;20057;-89
2022/10/05 08:34:44;;;;;;;32.13;30.13;;;17.90;96.60;;;;;;4972116;28;20043;-87
2022/10/05 08:37:26;;;;;;;29.70;27.70;;;17.90;96.50;;;;;;4976081;28;20416;-86
2022/10/05 08:40:10;;;;;;;28.27;26.70;;;17.90;96.60;;;;;;4957687;28;20031;-83
2022/10/05 08:42:42;;;;;;;29.25;27.48;;;17.90;96.30;;;;;;4967908;28;20040;-82
2022/10/05 08:45:26;;;;;;;25.95;24.08;;;17.90;96.50;;;;;;4969594;28;20047;-82
2022/10/05 08:48:14;;;;;;;33.85;31.83;;;18.00;96.70;;;;;;4966917;28;20043;-82
2022/10/05 08:50:58;;;;;;;31.90;30.05;;;18.00;97.10;;;;;;4939571;29;20050;-82
2022/10/05 08:53:24;;;;;;;28.02;26.33;;;18.00;96.20;;;;;;4947288;28;20054;-84
2022/10/05 08:56:40;;;;;;;32.50;30.70;;;18.10;96.50;;;;;;4951119;28;20031;-84
2022/10/05 08:59:18;;;;;;;29.27;26.95;;;18.10;96.50;;;;;;4913419;29;20043;-84
2022/10/05 09:01:55;;;;;;;32.35;30.60;;;18.20;97.00;;;;;;4914505;29;20405;-84
2022/10/05 09:04:28;;;;;;;28.48;26.67;;;18.20;96.00;;;;;;4900655;29;20071;-83
2022/10/05 09:07:12;;;;;;;28.77;26.83;;;18.20;95.70;;;;;;4882649;29;20032;-82
2022/10/05 09:10:15;;;;;;;29.65;27.65;;;18.30;95.80;;;;;;4907415;29;20431;-81
2022/10/05 09:13:00;;;;;;;28.30;26.27;;;18.30;96.20;;;;;;4896306;29;20063;-86
2022/10/05 09:15:41;;;;;;;31.30;29.30;;;18.40;95.60;;;;;;4914247;29;20044;-87
2022/10/05 09:18:29;;;;;;;30.60;28.50;;;18.40;95.20;;;;;;4895698;29;20037;-85
2022/10/05 09:21:18;;;;;;;27.73;26.13;;;18.50;95.40;;;;;;4882143;29;20096;-83
2022/10/05 09:23:45;;;;;;;29.25;27.45;;;18.50;95.80;;;;;;4906545;29;20044;-83
2022/10/05 09:26:32;;;;;;;26.45;24.75;;;18.50;95.60;;;;;;4897215;29;20147;-85
2022/10/05 09:29:24;;;;;;;27.27;25.58;;;18.60;95.60;;;;;;4882888;29;20043;-83
2022/10/05 09:32:29;;;;;;;33.35;31.33;;;18.60;96.10;;;;;;4898067;29;20044;-85
2022/10/05 09:35:06;;;;;;;33.35;31.13;;;18.70;95.10;;;;;;4889889;29;20051;-83
2022/10/05 09:37:51;;;;;;;36.45;34.30;;;18.80;94.60;;;;;;4907555;29;21200;-84
2022/10/05 09:40:54;;;;;;;37.00;34.60;;;18.80;94.40;;;;;;4914501;29;20415;-85
2022/10/05 09:43:23;;;;;;;32.63;30.73;;;18.90;94.00;;;;;;4915106;29;20039;-84
2022/10/05 09:45:57;;;;;;;34.65;32.47;;;18.80;93.90;;;;;;4910989;29;20616;-84
2022/10/05 09:48:47;;;;;;;33.55;31.30;;;18.90;94.00;;;;;;4921059;29;20040;-84
2022/10/05 09:51:16;;;;;;;37.47;35.15;;;19.00;94.30;;;;;;4886037;29;20067;-84
2022/10/05 09:53:51;;;;;;;33.55;31.35;;;19.10;94.60;;;;;;4912101;29;20547;-85
2022/10/05 09:56:47;;;;;;;39.78;37.35;;;19.20;93.70;;;;;;4911593;29;20055;-83
2022/10/05 09:59:18;;;;;;;35.03;32.72;;;19.20;93.80;;;;;;4909313;29;20050;-84
2022/10/05 10:02:15;;;;;;;36.67;34.25;;;19.40;93.80;;;;;;4909877;29;20043;-86
2022/10/05 10:05:13;;;;;;;35.67;33.38;;;19.40;93.20;;;;;;4909455;29;20055;-83
2022/10/05 10:07:51;;;;;;;32.25;30.05;;;19.50;93.10;;;;;;4888975;29;20055;-86
2022/10/05 10:10:38;;;;;;;33.05;30.95;;;19.50;92.30;;;;;;4901617;29;20036;-85
2022/10/05 10:13:38;;;;;;;32.40;30.23;;;19.50;92.30;;;;;;4966528;28;20033;-86
2022/10/05 10:16:48;;;;;;;34.95;32.17;;;19.60;92.00;;;;;;4953951;28;20301;-92
2022/10/05 10:19:41;;;;;;;30.17;28.27;;;19.50;91.70;;;;;;4942423;28;20027;-89
2022/10/05 10:22:36;;;;;;;34.92;32.65;;;19.50;91.80;;;;;;4948629;28;20046;-83
2022/10/05 10:25:21;;;;;;;31.33;29.08;;;19.60;92.40;;;;;;4931700;29;20066;-82
2022/10/05 10:28:05;;;;;;;34.15;31.63;;;19.50;92.00;;;;;;4913314;29;20094;-83
2022/10/05 10:30:50;;;;;;;31.65;29.58;;;19.60;92.00;;;;;;4905161;29;20041;-82
2022/10/05 10:33:40;;;;;;;34.67;32.38;;;19.60;91.80;;;;;;4915353;29;20039;-83
2022/10/05 10:36:15;;;;;;;32.45;30.08;;;19.60;91.70;;;;;;4932675;29;20524;-85
2022/10/05 10:38:57;;;;;;;32.58;30.42;;;19.60;91.90;;;;;;4904594;29;20066;-86
2022/10/05 10:41:30;;;;;;;33.15;30.75;;;19.60;92.10;;;;;;4913845;29;20429;-82
2022/10/05 10:44:21;;;;;;;32.45;30.42;;;19.70;92.00;;;;;;4902965;29;20148;-83
2022/10/05 10:46:56;;;;;;;32.22;29.70;;;19.70;91.90;;;;;;4915271;29;20718;-83
2022/10/05 10:49:33;;;;;;;32.05;29.83;;;19.70;92.00;;;;;;4913068;29;20052;-84
2022/10/05 10:52:20;;;;;;;34.92;32.67;;;19.80;91.80;;;;;;4907054;29;20047;-84
2022/10/05 10:55:20;;;;;;;35.03;32.75;;;19.80;92.00;;;;;;4931943;29;20533;-84
2022/10/05 10:57:51;;;;;;;35.67;32.75;;;19.90;91.40;;;;;;4903723;29;20047;-86
2022/10/05 11:00:54;;;;;;;34.45;32.00;;;19.90;91.70;;;;;;4902402;29;20489;-83
2022/10/05 11:03:42;;;;;;;30.88;28.40;;;20.00;91.50;;;;;;4952539;28;20085;-83
2022/10/05 11:06:24;;;;;;;30.95;28.92;;;20.00;91.40;;;;;;4967040;28;20096;-82
2022/10/05 11:08:56;;;;;;;34.35;32.08;;;19.90;91.50;;;;;;4952196;28;20043;-83
2022/10/05 11:11:23;;;;;;;31.50;29.33;;;20.00;92.20;;;;;;4951104;28;20050;-87
2022/10/05 11:14:05;;;;;;;30.67;28.30;;;20.00;91.70;;;;;;4963548;28;20047;-86
2022/10/05 11:17:30;;;;;;;33.88;31.50;;;20.00;91.70;;;;;;4944482;28;20404;-88
2022/10/05 11:20:08;;;;;;;33.92;31.52;;;19.90;91.70;;;;;;4917926;28;20040;-86
2022/10/05 11:22:55;;;;;;;33.60;31.15;;;20.00;92.10;;;;;;4934808;29;20043;-86
2022/10/05 11:25:51;;;;;;;35.53;33.30;;;20.00;92.50;;;;;;4915856;29;20055;-84
2022/10/05 11:28:34;;;;;;;32.97;30.55;;;20.00;92.20;;;;;;4950014;28;20047;-86
2022/10/05 11:31:24;;;;;;;34.30;31.63;;;20.00;92.00;;;;;;4934014;28;20043;-89
2022/10/05 11:34:08;;;;;;;34.72;31.98;;;20.10;91.80;;;;;;4934455;28;20052;-86
2022/10/05 11:37:00;;;;;;;34.30;31.88;;;20.20;91.40;;;;;;4949668;28;20608;-88
2022/10/05 11:40:00;;;;;;;34.25;32.03;;;20.20;91.20;;;;;;4924794;29;20088;-86
2022/10/05 11:42:59;;;;;;;39.58;36.97;;;20.40;91.40;;;;;;4932162;29;20094;-89
2022/10/05 11:45:26;;;;;;;40.92;38.30;;;20.60;90.40;;;;;;4942173;28;20043;-87
2022/10/05 11:48:23;;;;;;;44.28;41.30;;;20.80;90.20;;;;;;4931469;29;20046;-85
2022/10/05 11:51:13;;;;;;;47.55;44.83;;;20.90;88.60;;;;;;4950210;28;20368;-86
2022/10/05 11:53:57;;;;;;;53.30;50.23;;;20.90;87.80;;;;;;4967263;28;20043;-85
2022/10/05 11:56:41;;;;;;;49.28;46.13;;;20.90;86.10;;;;;;4967600;28;20283;-87
2022/10/05 11:59:22;;;;;;;55.30;51.70;;;20.80;86.00;;;;;;4936033;28;20046;-86
2022/10/05 12:02:16;;;;;;;51.80;48.80;;;20.70;85.00;;;;;;4951547;28;20031;-85
2022/10/05 12:05:15;;;;;;;50.67;47.53;;;20.70;85.30;;;;;;4924365;29;20409;-87
2022/10/05 12:07:56;;;;;;;52.25;49.10;;;20.70;86.30;;;;;;4912191;29;20052;-85
2022/10/05 12:10:43;;;;;;;49.88;46.53;;;20.60;84.90;;;;;;4894182;29;20052;-84
2022/10/05 12:13:30;;;;;;;49.05;45.75;;;20.60;85.10;;;;;;4908936;29;20076;-86
2022/10/05 12:15:56;;;;;;;47.17;44.05;;;20.60;85.60;;;;;;4912786;29;20039;-87
2022/10/05 12:18:29;;;;;;;45.85;43.00;;;20.70;85.60;;;;;;4903209;29;20044;-85
2022/10/05 12:21:26;;;;;;;46.08;43.00;;;20.60;85.20;;;;;;4900338;29;20044;-84
2022/10/05 12:24:06;;;;;;;42.97;39.85;;;20.60;85.30;;;;;;4900621;29;20040;-85
2022/10/05 12:26:56;;;;;;;44.33;41.63;;;20.60;85.30;;;;;;4899986;29;20067;-87
2022/10/05 12:29:27;;;;;;;42.42;39.72;;;20.60;85.50;;;;;;4914825;29;20039;-87
2022/10/05 12:32:12;;;;;;;46.00;43.20;;;20.70;85.70;;;;;;4915290;29;20067;-86
2022/10/05 12:35:05;;;;;;;45.90;43.10;;;20.80;85.60;;;;;;4899587;29;20036;-86
2022/10/05 12:37:42;;;;;;;51.20;48.25;;;20.90;85.00;;;;;;4899033;29;20572;-88
2022/10/05 12:40:14;;;;;;;56.92;53.72;;;21.10;84.00;;;;;;4899647;29;20051;-87
2022/10/05 12:43:04;;;;;;;63.47;60.03;;;21.30;83.80;;;;;;4920138;29;20055;-86
2022/10/05 12:45:57;;;;;;;60.38;56.90;;;21.40;81.70;;;;;;4948332;28;20050;-84
2022/10/05 12:48:39;;;;;;;64.43;60.45;;;21.40;81.50;;;;;;4938206;29;20047;-84
2022/10/05 12:51:05;;;;;;;58.33;54.80;;;21.40;81.60;;;;;;4939736;29;20058;-83
2022/10/05 12:53:47;;;;;;;64.72;60.92;;;21.30;81.50;;;;;;4970709;28;20047;-83
2022/10/05 12:56:32;;;;;;;58.25;55.03;;;21.30;81.00;;;;;;4951964;28;20050;-84
2022/10/05 12:59:00;;;;;;;53.22;49.78;;;21.40;81.00;;;;;;4967662;28;20046;-88
2022/10/05 13:01:45;;;;;;;56.08;52.42;;;21.30;79.70;;;;;;4947136;28;20404;-88
2022/10/05 13:04:29;;;;;;;55.80;52.42;;;21.20;80.90;;;;;;4951435;29;20043;-88
2022/10/05 13:07:17;;;;;;;55.35;52.20;;;21.20;80.30;;;;;;4948958;29;20440;-78
2022/10/05 13:09:55;;;;;;;49.42;46.60;;;21.10;79.30;;;;;;4955835;28;20053;-78
2022/10/05 13:12:48;;;;;;;57.83;54.53;;;21.10;78.70;;;;;;4968745;28;20039;-78
2022/10/05 13:15:27;;;;;;;50.67;47.67;;;21.10;78.00;;;;;;4970052;28;20039;-78
2022/10/05 13:18:03;;;;;;;53.22;50.20;;;21.10;78.70;;;;;;4953448;28;20035;-78
2022/10/05 13:20:39;;;;;;;50.80;47.55;;;21.10;78.90;;;;;;4955525;28;20042;-78
2022/10/05 13:23:11;;;;;;;50.38;47.55;;;21.10;78.80;;;;;;4935227;29;20035;-78
2022/10/05 13:26:03;;;;;;;52.20;49.13;;;21.10;79.20;;;;;;4934810;29;20043;-78
2022/10/05 13:28:37;;;;;;;51.75;48.92;;;21.00;79.40;;;;;;4940580;28;20039;-78
2022/10/05 13:31:23;;;;;;;56.85;53.10;;;21.10;80.00;;;;;;4968550;28;20031;-78
2022/10/05 13:34:06;;;;;;;54.45;51.38;;;21.20;79.90;;;;;;4966583;28;20504;-78
2022/10/05 13:36:47;;;;;;;56.42;53.30;;;21.30;79.50;;;;;;4966702;28;20027;-78
2022/10/05 13:39:16;;;;;;;;;;;21.40;79.90;;;;;;4936520;29;20036;-78
2022/10/05 13:41:51;;;;;;;56.35;53.10;;;21.50;79.70;;;;;;4951380;28;19915;-78